sensor_id;sensor_type;location;lat;lon;timestamp;temperature;humidity
19017;DHT22;9641;51.494;6.670;2022-12-15T00:01:50;-5.80;58.30
19017;DHT22;9641;51.494;6.670;2022-12-15T00:04:35;-5.90;43.40
19017;DHT22;9641;51.494;6.670;2022-12-15T00:07:19;-6.10;44.80
19017;DHT22;9641;51.494;6.670;2022-12-15T00:10:05;-6.20;51.50
19017;DHT22;9641;51.494;6.670;2022-12-15T00:12:50;-6.30;52.80
19017;DHT22;9641;51.494;6.670;2022-12-15T00:15:35;-6.30;59.20
19017;DHT22;9641;51.494;6.670;2022-12-15T00:18:20;-6.40;64.60
19017;DHT22;9641;51.494;6.670;2022-12-15T00:21:06;-6.50;65.70
19017;DHT22;9641;51.494;6.670;2022-12-15T00:23:51;-6.50;74.50
19017;DHT22;9641;51.494;6.670;2022-12-15T00:26:37;-6.50;75.30
19017;DHT22;9641;51.494;6.670;2022-12-15T00:29:21;-6.50;77.60
19017;DHT22;9641;51.494;6.670;2022-12-15T00:32:06;-6.50;86.20
19017;DHT22;9641;51.494;6.670;2022-12-15T00:34:50;-6.40;86.80
19017;DHT22;9641;51.494;6.670;2022-12-15T00:37:35;-6.40;83.90
19017;DHT22;9641;51.494;6.670;2022-12-15T00:40:20;-6.40;78.50
19017;DHT22;9641;51.494;6.670;2022-12-15T00:42:51;-6.40;78.20
19017;DHT22;9641;51.494;6.670;2022-12-15T00:45:20;-6.40;70.20
19017;DHT22;9641;51.494;6.670;2022-12-15T00:48:07;-6.40;73.80
19017;DHT22;9641;51.494;6.670;2022-12-15T00:50:33;-6.30;65.80
19017;DHT22;9641;51.494;6.670;2022-12-15T00:53:21;-6.40;64.80
19017;DHT22;9641;51.494;6.670;2022-12-15T00:56:06;-6.30;62.20
19017;DHT22;9641;51.494;6.670;2022-12-15T00:58:52;-6.20;63.50
19017;DHT22;9641;51.494;6.670;2022-12-15T01:01:40;-6.30;52.90
19017;DHT22;9641;51.494;6.670;2022-12-15T01:04:25;-6.40;54.50
19017;DHT22;9641;51.494;6.670;2022-12-15T01:07:10;-6.50;54.50
19017;DHT22;9641;51.494;6.670;2022-12-15T01:09:56;-6.40;67.60
19017;DHT22;9641;51.494;6.670;2022-12-15T01:12:40;-6.30;72.20
19017;DHT22;9641;51.494;6.670;2022-12-15T01:15:26;-6.20;68.50
19017;DHT22;9641;51.494;6.670;2022-12-15T01:18:10;-6.20;58.00
19017;DHT22;9641;51.494;6.670;2022-12-15T01:20:56;-6.20;57.90
19017;DHT22;9641;51.494;6.670;2022-12-15T01:23:24;-6.20;65.70
19017;DHT22;9641;51.494;6.670;2022-12-15T01:25:53;-6.20;68.40
19017;DHT22;9641;51.494;6.670;2022-12-15T01:28:21;-6.30;67.20
19017;DHT22;9641;51.494;6.670;2022-12-15T01:30:50;-6.40;66.80
19017;DHT22;9641;51.494;6.670;2022-12-15T01:33:20;-6.50;66.70
19017;DHT22;9641;51.494;6.670;2022-12-15T01:36:02;-6.30;84.10
19017;DHT22;9641;51.494;6.670;2022-12-15T01:38:32;-6.30;66.70
19017;DHT22;9641;51.494;6.670;2022-12-15T01:41:02;-6.40;58.00
19017;DHT22;9641;51.494;6.670;2022-12-15T01:43:31;-6.40;53.70
19017;DHT22;9641;51.494;6.670;2022-12-15T01:46:04;-6.40;59.50
19017;DHT22;9641;51.494;6.670;2022-12-15T01:48:37;-6.40;59.90
19017;DHT22;9641;51.494;6.670;2022-12-15T01:51:14;-6.40;60.30
19017;DHT22;9641;51.494;6.670;2022-12-15T01:53:47;-6.50;64.50
19017;DHT22;9641;51.494;6.670;2022-12-15T01:56:18;-6.50;68.50
19017;DHT22;9641;51.494;6.670;2022-12-15T01:58:48;-6.60;72.00
19017;DHT22;9641;51.494;6.670;2022-12-15T02:01:20;-6.60;76.60
19017;DHT22;9641;51.494;6.670;2022-12-15T02:03:48;-6.50;87.00
19017;DHT22;9641;51.494;6.670;2022-12-15T02:06:18;-6.40;84.90
19017;DHT22;9641;51.494;6.670;2022-12-15T02:08:50;-6.30;90.00
19017;DHT22;9641;51.494;6.670;2022-12-15T02:11:43;-6.10;88.20
19017;DHT22;9641;51.494;6.670;2022-12-15T02:14:21;-6.00;73.50
19017;DHT22;9641;51.494;6.670;2022-12-15T02:17:05;-6.00;67.10
19017;DHT22;9641;51.494;6.670;2022-12-15T02:19:57;-6.00;77.50
19017;DHT22;9641;51.494;6.670;2022-12-15T02:22:40;-5.80;86.20
19017;DHT22;9641;51.494;6.670;2022-12-15T02:25:24;-6.00;76.70
19017;DHT22;9641;51.494;6.670;2022-12-15T02:27:57;-6.00;84.20
19017;DHT22;9641;51.494;6.670;2022-12-15T02:30:37;-6.00;87.90
19017;DHT22;9641;51.494;6.670;2022-12-15T02:33:37;-6.10;91.50
19017;DHT22;9641;51.494;6.670;2022-12-15T02:36:21;-6.10;93.30
19017;DHT22;9641;51.494;6.670;2022-12-15T02:38:50;-6.10;96.40
19017;DHT22;9641;51.494;6.670;2022-12-15T02:41:35;-5.90;99.90
19017;DHT22;9641;51.494;6.670;2022-12-15T02:44:06;-5.70;99.90
19017;DHT22;9641;51.494;6.670;2022-12-15T02:46:44;-5.60;99.90
19017;DHT22;9641;51.494;6.670;2022-12-15T02:49:25;-5.70;97.50
19017;DHT22;9641;51.494;6.670;2022-12-15T02:52:04;-5.70;95.70
19017;DHT22;9641;51.494;6.670;2022-12-15T02:55:08;-5.60;99.90
19017;DHT22;9641;51.494;6.670;2022-12-15T02:57:43;-5.30;99.90
19017;DHT22;9641;51.494;6.670;2022-12-15T03:00:15;-5.30;99.90
19017;DHT22;9641;51.494;6.670;2022-12-15T03:02:47;-5.30;97.30
19017;DHT22;9641;51.494;6.670;2022-12-15T03:05:16;-5.20;99.90
19017;DHT22;9641;51.494;6.670;2022-12-15T03:07:47;-5.10;99.90
19017;DHT22;9641;51.494;6.670;2022-12-15T03:10:15;-5.00;99.20
19017;DHT22;9641;51.494;6.670;2022-12-15T03:12:43;-5.00;94.60
19017;DHT22;9641;51.494;6.670;2022-12-15T03:15:15;-5.10;92.20
19017;DHT22;9641;51.494;6.670;2022-12-15T03:17:42;-5.10;95.40
19017;DHT22;9641;51.494;6.670;2022-12-15T03:20:12;-5.10;98.40
19017;DHT22;9641;51.494;6.670;2022-12-15T03:22:45;-5.00;99.90
19017;DHT22;9641;51.494;6.670;2022-12-15T03:25:12;-4.90;98.70
19017;DHT22;9641;51.494;6.670;2022-12-15T03:27:40;-4.90;93.70
19017;DHT22;9641;51.494;6.670;2022-12-15T03:30:09;-4.90;91.30
19017;DHT22;9641;51.494;6.670;2022-12-15T03:32:37;-5.00;84.30
19017;DHT22;9641;51.494;6.670;2022-12-15T03:35:05;-5.00;89.10
19017;DHT22;9641;51.494;6.670;2022-12-15T03:37:34;-5.00;90.40
19017;DHT22;9641;51.494;6.670;2022-12-15T03:40:02;-5.00;89.60
19017;DHT22;9641;51.494;6.670;2022-12-15T03:42:29;-5.10;88.40
19017;DHT22;9641;51.494;6.670;2022-12-15T03:45:16;-5.10;90.20
19017;DHT22;9641;51.494;6.670;2022-12-15T03:47:44;-5.10;90.00
19017;DHT22;9641;51.494;6.670;2022-12-15T03:50:14;-5.20;92.70
19017;DHT22;9641;51.494;6.670;2022-12-15T03:52:44;-5.20;95.90
19017;DHT22;9641;51.494;6.670;2022-12-15T03:55:12;-5.20;97.80
19017;DHT22;9641;51.494;6.670;2022-12-15T03:57:38;-5.20;99.90
19017;DHT22;9641;51.494;6.670;2022-12-15T04:00:07;-5.10;99.90
19017;DHT22;9641;51.494;6.670;2022-12-15T04:02:40;-5.00;99.90
19017;DHT22;9641;51.494;6.670;2022-12-15T04:05:13;-4.90;99.90
19017;DHT22;9641;51.494;6.670;2022-12-15T04:07:41;-4.90;99.90
19017;DHT22;9641;51.494;6.670;2022-12-15T04:10:11;-4.90;99.90
19017;DHT22;9641;51.494;6.670;2022-12-15T04:12:38;-4.80;99.90
19017;DHT22;9641;51.494;6.670;2022-12-15T04:15:06;-4.80;97.60
19017;DHT22;9641;51.494;6.670;2022-12-15T04:17:35;-4.90;95.00
19017;DHT22;9641;51.494;6.670;2022-12-15T04:20:06;-5.00;93.80
19017;DHT22;9641;51.494;6.670;2022-12-15T04:22:37;-5.10;93.30
19017;DHT22;9641;51.494;6.670;2022-12-15T04:25:07;-5.20;92.60
19017;DHT22;9641;51.494;6.670;2022-12-15T04:27:53;-5.30;96.40
19017;DHT22;9641;51.494;6.670;2022-12-15T04:30:39;-5.30;99.90
19017;DHT22;9641;51.494;6.670;2022-12-15T04:33:25;-5.20;99.90
19017;DHT22;9641;51.494;6.670;2022-12-15T04:36:11;-5.10;99.90
19017;DHT22;9641;51.494;6.670;2022-12-15T04:38:57;-5.10;99.90
19017;DHT22;9641;51.494;6.670;2022-12-15T04:41:42;-5.00;99.90
19017;DHT22;9641;51.494;6.670;2022-12-15T04:44:31;-5.00;99.90
19017;DHT22;9641;51.494;6.670;2022-12-15T04:47:15;-4.90;99.90
19017;DHT22;9641;51.494;6.670;2022-12-15T04:50:00;-5.00;99.90
19017;DHT22;9641;51.494;6.670;2022-12-15T04:52:44;-5.00;99.90
19017;DHT22;9641;51.494;6.670;2022-12-15T04:55:35;-5.00;99.90
19017;DHT22;9641;51.494;6.670;2022-12-15T04:58:19;-5.00;99.90
19017;DHT22;9641;51.494;6.670;2022-12-15T05:01:05;-5.00;99.90
19017;DHT22;9641;51.494;6.670;2022-12-15T05:03:51;-5.00;99.90
19017;DHT22;9641;51.494;6.670;2022-12-15T05:06:37;-5.10;99.90
19017;DHT22;9641;51.494;6.670;2022-12-15T05:09:23;-5.10;99.90
19017;DHT22;9641;51.494;6.670;2022-12-15T05:12:07;-5.10;99.90
19017;DHT22;9641;51.494;6.670;2022-12-15T05:14:52;-5.20;99.90
19017;DHT22;9641;51.494;6.670;2022-12-15T05:17:42;-5.20;99.90
19017;DHT22;9641;51.494;6.670;2022-12-15T05:20:26;-5.20;99.90
19017;DHT22;9641;51.494;6.670;2022-12-15T05:23:11;-5.20;99.90
19017;DHT22;9641;51.494;6.670;2022-12-15T05:25:57;-5.30;99.90
19017;DHT22;9641;51.494;6.670;2022-12-15T05:28:42;-5.30;99.90
19017;DHT22;9641;51.494;6.670;2022-12-15T05:31:27;-5.30;99.90
19017;DHT22;9641;51.494;6.670;2022-12-15T05:34:13;-5.50;99.90
19017;DHT22;9641;51.494;6.670;2022-12-15T05:36:44;-5.40;99.90
19017;DHT22;9641;51.494;6.670;2022-12-15T05:39:11;-5.20;99.90
19017;DHT22;9641;51.494;6.670;2022-12-15T05:41:38;-5.20;99.90
19017;DHT22;9641;51.494;6.670;2022-12-15T05:44:05;-5.20;99.90
19017;DHT22;9641;51.494;6.670;2022-12-15T05:46:33;-5.20;99.90
19017;DHT22;9641;51.494;6.670;2022-12-15T05:49:02;-5.20;99.90
19017;DHT22;9641;51.494;6.670;2022-12-15T05:51:31;-5.20;99.90
19017;DHT22;9641;51.494;6.670;2022-12-15T05:53:58;-5.20;99.90
19017;DHT22;9641;51.494;6.670;2022-12-15T05:56:26;-5.10;99.90
19017;DHT22;9641;51.494;6.670;2022-12-15T05:58:55;-5.10;99.90
19017;DHT22;9641;51.494;6.670;2022-12-15T06:01:23;-5.20;99.90
19017;DHT22;9641;51.494;6.670;2022-12-15T06:03:51;-5.10;99.90
19017;DHT22;9641;51.494;6.670;2022-12-15T06:06:18;-5.10;99.90
19017;DHT22;9641;51.494;6.670;2022-12-15T06:08:47;-5.10;99.90
19017;DHT22;9641;51.494;6.670;2022-12-15T06:11:15;-5.20;99.90
19017;DHT22;9641;51.494;6.670;2022-12-15T06:13:44;-5.30;99.90
19017;DHT22;9641;51.494;6.670;2022-12-15T06:16:13;-5.30;99.90
19017;DHT22;9641;51.494;6.670;2022-12-15T06:18:43;-5.30;99.90
19017;DHT22;9641;51.494;6.670;2022-12-15T06:21:12;-5.30;99.90
19017;DHT22;9641;51.494;6.670;2022-12-15T06:23:41;-5.20;99.90
19017;DHT22;9641;51.494;6.670;2022-12-15T06:26:12;-5.30;99.90
19017;DHT22;9641;51.494;6.670;2022-12-15T06:28:40;-5.30;99.90
19017;DHT22;9641;51.494;6.670;2022-12-15T06:31:10;-5.40;99.90
19017;DHT22;9641;51.494;6.670;2022-12-15T06:33:37;-5.60;99.90
19017;DHT22;9641;51.494;6.670;2022-12-15T06:36:06;-5.60;99.90
19017;DHT22;9641;51.494;6.670;2022-12-15T06:38:34;-5.60;99.90
19017;DHT22;9641;51.494;6.670;2022-12-15T06:41:03;-5.70;99.90
19017;DHT22;9641;51.494;6.670;2022-12-15T06:43:32;-5.60;99.90
19017;DHT22;9641;51.494;6.670;2022-12-15T06:45:59;-5.50;99.90
19017;DHT22;9641;51.494;6.670;2022-12-15T06:48:26;-5.50;99.90
19017;DHT22;9641;51.494;6.670;2022-12-15T06:50:55;-5.50;99.90
19017;DHT22;9641;51.494;6.670;2022-12-15T06:53:23;-5.50;99.90
19017;DHT22;9641;51.494;6.670;2022-12-15T06:55:50;-5.50;99.90
19017;DHT22;9641;51.494;6.670;2022-12-15T06:58:18;-5.50;99.90
19017;DHT22;9641;51.494;6.670;2022-12-15T07:00:47;-5.50;99.90
19017;DHT22;9641;51.494;6.670;2022-12-15T07:03:16;-5.50;99.90
19017;DHT22;9641;51.494;6.670;2022-12-15T07:05:44;-5.50;99.90
19017;DHT22;9641;51.494;6.670;2022-12-15T07:08:14;-5.60;99.90
19017;DHT22;9641;51.494;6.670;2022-12-15T07:10:42;-5.70;99.90
19017;DHT22;9641;51.494;6.670;2022-12-15T07:13:10;-5.70;99.90
19017;DHT22;9641;51.494;6.670;2022-12-15T07:15:38;-5.60;99.90
19017;DHT22;9641;51.494;6.670;2022-12-15T07:18:09;-5.50;99.90
19017;DHT22;9641;51.494;6.670;2022-12-15T07:20:37;-5.40;99.90
19017;DHT22;9641;51.494;6.670;2022-12-15T07:23:05;-5.30;99.90
19017;DHT22;9641;51.494;6.670;2022-12-15T07:25:35;-5.30;99.90
19017;DHT22;9641;51.494;6.670;2022-12-15T07:28:03;-5.30;99.90
19017;DHT22;9641;51.494;6.670;2022-12-15T07:30:31;-5.30;99.90
19017;DHT22;9641;51.494;6.670;2022-12-15T07:32:58;-5.40;99.90
19017;DHT22;9641;51.494;6.670;2022-12-15T07:35:28;-5.40;99.90
19017;DHT22;9641;51.494;6.670;2022-12-15T07:37:55;-5.50;99.90
19017;DHT22;9641;51.494;6.670;2022-12-15T07:40:22;-5.40;99.90
19017;DHT22;9641;51.494;6.670;2022-12-15T07:42:49;-5.30;99.90
19017;DHT22;9641;51.494;6.670;2022-12-15T07:45:17;-5.20;99.90
19017;DHT22;9641;51.494;6.670;2022-12-15T07:47:48;-5.20;99.90
19017;DHT22;9641;51.494;6.670;2022-12-15T07:50:16;-5.20;99.90
19017;DHT22;9641;51.494;6.670;2022-12-15T07:52:49;-5.10;99.90
19017;DHT22;9641;51.494;6.670;2022-12-15T07:55:16;-5.10;99.90
19017;DHT22;9641;51.494;6.670;2022-12-15T07:57:45;-5.00;99.90
19017;DHT22;9641;51.494;6.670;2022-12-15T08:00:15;-5.00;99.90
19017;DHT22;9641;51.494;6.670;2022-12-15T08:02:47;-4.90;99.90
19017;DHT22;9641;51.494;6.670;2022-12-15T08:05:14;-4.90;99.90
19017;DHT22;9641;51.494;6.670;2022-12-15T08:07:41;-4.80;99.90
19017;DHT22;9641;51.494;6.670;2022-12-15T08:10:10;-4.80;99.90
19017;DHT22;9641;51.494;6.670;2022-12-15T08:12:42;-4.90;99.90
19017;DHT22;9641;51.494;6.670;2022-12-15T08:15:10;-4.90;99.90
19017;DHT22;9641;51.494;6.670;2022-12-15T08:17:37;-4.80;99.90
19017;DHT22;9641;51.494;6.670;2022-12-15T08:20:06;-4.70;99.90
19017;DHT22;9641;51.494;6.670;2022-12-15T08:22:33;-4.60;99.90
19017;DHT22;9641;51.494;6.670;2022-12-15T08:25:10;-4.60;99.90
19017;DHT22;9641;51.494;6.670;2022-12-15T08:27:38;-4.60;99.90
19017;DHT22;9641;51.494;6.670;2022-12-15T08:30:07;-4.50;99.90
19017;DHT22;9641;51.494;6.670;2022-12-15T08:32:35;-4.50;99.90
19017;DHT22;9641;51.494;6.670;2022-12-15T08:35:05;-4.40;99.90
19017;DHT22;9641;51.494;6.670;2022-12-15T08:37:42;-4.30;99.90
19017;DHT22;9641;51.494;6.670;2022-12-15T08:40:12;-4.30;99.90
19017;DHT22;9641;51.494;6.670;2022-12-15T08:42:43;-4.20;99.90
19017;DHT22;9641;51.494;6.670;2022-12-15T08:45:11;-4.20;99.90
19017;DHT22;9641;51.494;6.670;2022-12-15T08:47:39;-4.20;99.90
19017;DHT22;9641;51.494;6.670;2022-12-15T08:50:07;-4.10;99.90
19017;DHT22;9641;51.494;6.670;2022-12-15T08:52:34;-4.00;99.90
19017;DHT22;9641;51.494;6.670;2022-12-15T08:55:07;-4.00;99.90
19017;DHT22;9641;51.494;6.670;2022-12-15T08:57:45;-4.00;99.90
19017;DHT22;9641;51.494;6.670;2022-12-15T09:00:18;-3.90;99.90
19017;DHT22;9641;51.494;6.670;2022-12-15T09:02:46;-3.90;99.90
19017;DHT22;9641;51.494;6.670;2022-12-15T09:05:16;-3.80;99.90
19017;DHT22;9641;51.494;6.670;2022-12-15T09:07:44;-3.80;99.90
19017;DHT22;9641;51.494;6.670;2022-12-15T09:10:30;-3.70;99.90
19017;DHT22;9641;51.494;6.670;2022-12-15T09:12:58;-3.70;99.90
19017;DHT22;9641;51.494;6.670;2022-12-15T09:15:28;-3.60;99.90
19017;DHT22;9641;51.494;6.670;2022-12-15T09:18:00;-3.50;99.90
19017;DHT22;9641;51.494;6.670;2022-12-15T09:20:34;-3.50;99.90
19017;DHT22;9641;51.494;6.670;2022-12-15T09:23:05;-3.50;99.90
19017;DHT22;9641;51.494;6.670;2022-12-15T09:25:33;-3.40;99.90
19017;DHT22;9641;51.494;6.670;2022-12-15T09:28:01;-3.40;99.90
19017;DHT22;9641;51.494;6.670;2022-12-15T09:30:28;-3.30;99.90
19017;DHT22;9641;51.494;6.670;2022-12-15T09:32:55;-3.30;99.90
19017;DHT22;9641;51.494;6.670;2022-12-15T09:35:26;-3.20;99.90
19017;DHT22;9641;51.494;6.670;2022-12-15T09:37:53;-3.10;99.90
19017;DHT22;9641;51.494;6.670;2022-12-15T09:40:23;-3.10;99.90
19017;DHT22;9641;51.494;6.670;2022-12-15T09:42:53;-3.10;99.90
19017;DHT22;9641;51.494;6.670;2022-12-15T09:45:41;-3.00;99.90
19017;DHT22;9641;51.494;6.670;2022-12-15T09:48:21;-2.90;99.90
19017;DHT22;9641;51.494;6.670;2022-12-15T09:50:53;-2.80;99.90
19017;DHT22;9641;51.494;6.670;2022-12-15T09:53:48;-2.80;99.90
19017;DHT22;9641;51.494;6.670;2022-12-15T09:57:02;-2.70;99.90
19017;DHT22;9641;51.494;6.670;2022-12-15T09:59:35;-2.70;99.90
19017;DHT22;9641;51.494;6.670;2022-12-15T10:02:23;-2.60;99.90
19017;DHT22;9641;51.494;6.670;2022-12-15T10:05:04;-2.70;99.90
19017;DHT22;9641;51.494;6.670;2022-12-15T10:07:54;-2.60;99.90
19017;DHT22;9641;51.494;6.670;2022-12-15T10:10:33;-2.50;99.90
19017;DHT22;9641;51.494;6.670;2022-12-15T10:13:08;-2.40;99.90
19017;DHT22;9641;51.494;6.670;2022-12-15T10:15:43;-2.30;99.90
19017;DHT22;9641;51.494;6.670;2022-12-15T10:18:20;-2.40;91.90
19017;DHT22;9641;51.494;6.670;2022-12-15T10:20:51;-2.20;97.20
19017;DHT22;9641;51.494;6.670;2022-12-15T10:23:21;-1.50;89.80
19017;DHT22;9641;51.494;6.670;2022-12-15T10:25:55;-1.10;1.30
19017;DHT22;9641;51.494;6.670;2022-12-15T10:28:51;-0.80;1.00
19017;DHT22;9641;51.494;6.670;2022-12-15T10:31:34;-0.30;1.00
19017;DHT22;9641;51.494;6.670;2022-12-15T10:34:08;0.30;1.00
19017;DHT22;9641;51.494;6.670;2022-12-15T10:36:43;0.40;1.00
19017;DHT22;9641;51.494;6.670;2022-12-15T10:39:15;0.40;1.00
19017;DHT22;9641;51.494;6.670;2022-12-15T10:41:42;0.70;1.00
19017;DHT22;9641;51.494;6.670;2022-12-15T10:44:23;1.30;99.90
19017;DHT22;9641;51.494;6.670;2022-12-15T10:46:54;1.60;99.90
19017;DHT22;9641;51.494;6.670;2022-12-15T10:49:27;2.10;1.00
19017;DHT22;9641;51.494;6.670;2022-12-15T10:51:57;2.70;1.00
19017;DHT22;9641;51.494;6.670;2022-12-15T10:54:28;3.30;1.00
19017;DHT22;9641;51.494;6.670;2022-12-15T10:57:01;3.40;1.00
19017;DHT22;9641;51.494;6.670;2022-12-15T10:59:31;3.50;99.90
19017;DHT22;9641;51.494;6.670;2022-12-15T11:02:26;4.00;1.00
19017;DHT22;9641;51.494;6.670;2022-12-15T11:04:58;4.70;1.00
19017;DHT22;9641;51.494;6.670;2022-12-15T11:07:36;4.70;1.00
19017;DHT22;9641;51.494;6.670;2022-12-15T11:10:18;4.40;99.90
19017;DHT22;9641;51.494;6.670;2022-12-15T11:12:56;4.30;99.90
19017;DHT22;9641;51.494;6.670;2022-12-15T11:15:39;4.80;99.90
19017;DHT22;9641;51.494;6.670;2022-12-15T11:21:06;5.50;6.10
19017;DHT22;9641;51.494;6.670;2022-12-15T11:23:48;4.80;1.00
19017;DHT22;9641;51.494;6.670;2022-12-15T11:26:25;4.20;1.00
19017;DHT22;9641;51.494;6.670;2022-12-15T11:28:59;4.00;1.00
19017;DHT22;9641;51.494;6.670;2022-12-15T11:31:33;3.40;99.90
19017;DHT22;9641;51.494;6.670;2022-12-15T11:34:11;3.40;1.00
19017;DHT22;9641;51.494;6.670;2022-12-15T11:39:53;3.80;1.00
19017;DHT22;9641;51.494;6.670;2022-12-15T11:42:32;4.50;99.90
19017;DHT22;9641;51.494;6.670;2022-12-15T11:45:15;4.20;1.00
19017;DHT22;9641;51.494;6.670;2022-12-15T11:47:48;3.70;99.90
19017;DHT22;9641;51.494;6.670;2022-12-15T11:50:28;3.80;99.90
19017;DHT22;9641;51.494;6.670;2022-12-15T11:53:21;3.50;99.90
19017;DHT22;9641;51.494;6.670;2022-12-15T11:56:01;3.50;1.00
19017;DHT22;9641;51.494;6.670;2022-12-15T11:58:44;3.50;1.00
19017;DHT22;9641;51.494;6.670;2022-12-15T12:01:32;3.30;1.00
19017;DHT22;9641;51.494;6.670;2022-12-15T12:04:20;3.50;1.00
19017;DHT22;9641;51.494;6.670;2022-12-15T12:07:00;3.20;1.00
19017;DHT22;9641;51.494;6.670;2022-12-15T12:09:47;3.10;99.90
19017;DHT22;9641;51.494;6.670;2022-12-15T12:12:26;3.30;1.00
19017;DHT22;9641;51.494;6.670;2022-12-15T12:15:14;3.30;1.00
19017;DHT22;9641;51.494;6.670;2022-12-15T12:17:56;3.30;1.00
19017;DHT22;9641;51.494;6.670;2022-12-15T12:20:40;3.20;1.00
19017;DHT22;9641;51.494;6.670;2022-12-15T12:23:14;3.50;1.00
19017;DHT22;9641;51.494;6.670;2022-12-15T12:25:57;3.80;1.00
19017;DHT22;9641;51.494;6.670;2022-12-15T12:28:32;3.80;99.90
19017;DHT22;9641;51.494;6.670;2022-12-15T12:31:05;3.60;99.90
19017;DHT22;9641;51.494;6.670;2022-12-15T12:33:39;3.90;99.90
19017;DHT22;9641;51.494;6.670;2022-12-15T12:36:12;4.60;99.90
19017;DHT22;9641;51.494;6.670;2022-12-15T12:38:42;5.20;1.00
19017;DHT22;9641;51.494;6.670;2022-12-15T12:41:25;5.70;1.00
19017;DHT22;9641;51.494;6.670;2022-12-15T12:44:00;5.60;1.00
19017;DHT22;9641;51.494;6.670;2022-12-15T12:46:31;5.80;1.00
19017;DHT22;9641;51.494;6.670;2022-12-15T12:49:07;5.40;1.00
19017;DHT22;9641;51.494;6.670;2022-12-15T12:51:48;4.50;1.00
19017;DHT22;9641;51.494;6.670;2022-12-15T12:54:39;3.80;1.00
19017;DHT22;9641;51.494;6.670;2022-12-15T13:00:22;3.60;26.40
19017;DHT22;9641;51.494;6.670;2022-12-15T13:05:44;4.50;1.00
19017;DHT22;9641;51.494;6.670;2022-12-15T13:14:45;2.80;1.00
19017;DHT22;9641;51.494;6.670;2022-12-15T13:17:26;3.00;99.90
19017;DHT22;9641;51.494;6.670;2022-12-15T13:20:27;3.60;1.00
19017;DHT22;9641;51.494;6.670;2022-12-15T13:26:11;3.10;1.00
19017;DHT22;9641;51.494;6.670;2022-12-15T13:28:49;3.70;1.00
19017;DHT22;9641;51.494;6.670;2022-12-15T13:31:53;4.30;99.90
19017;DHT22;9641;51.494;6.670;2022-12-15T13:34:26;5.20;1.00
19017;DHT22;9641;51.494;6.670;2022-12-15T13:36:56;5.70;1.00
19017;DHT22;9641;51.494;6.670;2022-12-15T13:39:55;5.00;1.00
19017;DHT22;9641;51.494;6.670;2022-12-15T13:42:34;4.80;1.00
19017;DHT22;9641;51.494;6.670;2022-12-15T13:45:47;4.20;1.00
19017;DHT22;9641;51.494;6.670;2022-12-15T13:48:43;3.40;1.00
19017;DHT22;9641;51.494;6.670;2022-12-15T13:51:35;3.00;1.00
19017;DHT22;9641;51.494;6.670;2022-12-15T13:54:32;2.80;1.00
19017;DHT22;9641;51.494;6.670;2022-12-15T13:57:15;2.60;99.90
19017;DHT22;9641;51.494;6.670;2022-12-15T14:03:09;2.10;1.00
19017;DHT22;9641;51.494;6.670;2022-12-15T14:05:54;2.00;99.90
19017;DHT22;9641;51.494;6.670;2022-12-15T14:15:10;1.50;1.00
19017;DHT22;9641;51.494;6.670;2022-12-15T14:17:54;1.70;1.00
19017;DHT22;9641;51.494;6.670;2022-12-15T14:20:38;2.30;1.00
19017;DHT22;9641;51.494;6.670;2022-12-15T14:23:19;2.80;1.00
19017;DHT22;9641;51.494;6.670;2022-12-15T14:26:00;2.80;99.90
19017;DHT22;9641;51.494;6.670;2022-12-15T14:28:33;2.40;1.00
19017;DHT22;9641;51.494;6.670;2022-12-15T14:31:22;2.10;1.00
19017;DHT22;9641;51.494;6.670;2022-12-15T14:34:12;1.90;1.00
19017;DHT22;9641;51.494;6.670;2022-12-15T14:37:14;1.40;1.00
19017;DHT22;9641;51.494;6.670;2022-12-15T14:39:57;0.90;1.00
19017;DHT22;9641;51.494;6.670;2022-12-15T14:42:51;0.50;1.00
19017;DHT22;9641;51.494;6.670;2022-12-15T14:45:27;0.20;1.00
19017;DHT22;9641;51.494;6.670;2022-12-15T14:51:48;-0.30;99.90
19017;DHT22;9641;51.494;6.670;2022-12-15T14:54:35;-0.50;1.00
19017;DHT22;9641;51.494;6.670;2022-12-15T14:57:19;-0.70;1.00
19017;DHT22;9641;51.494;6.670;2022-12-15T15:00:27;-0.80;1.00
19017;DHT22;9641;51.494;6.670;2022-12-15T15:06:41;-1.10;1.00
19017;DHT22;9641;51.494;6.670;2022-12-15T15:09:32;-1.50;1.00
19017;DHT22;9641;51.494;6.670;2022-12-15T15:12:08;-1.70;1.00
19017;DHT22;9641;51.494;6.670;2022-12-15T15:14:51;-1.90;1.00
19017;DHT22;9641;51.494;6.670;2022-12-15T15:17:23;-2.10;1.00
19017;DHT22;9641;51.494;6.670;2022-12-15T15:19:55;-2.20;1.00
19017;DHT22;9641;51.494;6.670;2022-12-15T15:22:35;-2.30;13.80
19017;DHT22;9641;51.494;6.670;2022-12-15T15:25:43;-2.40;27.30
19017;DHT22;9641;51.494;6.670;2022-12-15T15:28:35;-2.60;44.40
19017;DHT22;9641;51.494;6.670;2022-12-15T15:31:33;-2.70;50.00
19017;DHT22;9641;51.494;6.670;2022-12-15T15:34:15;-2.80;48.20
19017;DHT22;9641;51.494;6.670;2022-12-15T15:36:51;-2.90;59.20
19017;DHT22;9641;51.494;6.670;2022-12-15T15:39:20;-2.90;71.50
19017;DHT22;9641;51.494;6.670;2022-12-15T15:45:24;-3.10;70.80
19017;DHT22;9641;51.494;6.670;2022-12-15T15:48:08;-3.10;81.70
19017;DHT22;9641;51.494;6.670;2022-12-15T15:50:39;-3.20;82.20
19017;DHT22;9641;51.494;6.670;2022-12-15T15:53:14;-3.10;89.80
19017;DHT22;9641;51.494;6.670;2022-12-15T15:55:51;-3.10;92.70
19017;DHT22;9641;51.494;6.670;2022-12-15T15:58:19;-3.10;91.10
19017;DHT22;9641;51.494;6.670;2022-12-15T16:00:47;-3.20;86.50
19017;DHT22;9641;51.494;6.670;2022-12-15T16:03:18;-3.40;88.10
19017;DHT22;9641;51.494;6.670;2022-12-15T16:05:50;-3.40;91.30
19017;DHT22;9641;51.494;6.670;2022-12-15T16:08:20;-3.50;92.70
19017;DHT22;9641;51.494;6.670;2022-12-15T16:10:52;-3.50;97.00
19017;DHT22;9641;51.494;6.670;2022-12-15T16:13:26;-3.40;99.90
19017;DHT22;9641;51.494;6.670;2022-12-15T16:15:55;-3.40;98.90
19017;DHT22;9641;51.494;6.670;2022-12-15T16:18:23;-3.40;98.00
19017;DHT22;9641;51.494;6.670;2022-12-15T16:20:52;-3.50;99.50
19017;DHT22;9641;51.494;6.670;2022-12-15T16:23:28;-3.40;99.90
19017;DHT22;9641;51.494;6.670;2022-12-15T16:25:59;-3.30;99.90
19017;DHT22;9641;51.494;6.670;2022-12-15T16:28:29;-3.30;99.90
19017;DHT22;9641;51.494;6.670;2022-12-15T16:31:02;-3.20;99.90
19017;DHT22;9641;51.494;6.670;2022-12-15T16:33:30;-3.00;99.90
19017;DHT22;9641;51.494;6.670;2022-12-15T16:35:57;-2.90;99.90
19017;DHT22;9641;51.494;6.670;2022-12-15T16:38:27;-2.80;99.90
19017;DHT22;9641;51.494;6.670;2022-12-15T16:41:00;-2.70;99.90
19017;DHT22;9641;51.494;6.670;2022-12-15T16:43:33;-2.60;99.90
19017;DHT22;9641;51.494;6.670;2022-12-15T16:46:02;-2.70;99.90
19017;DHT22;9641;51.494;6.670;2022-12-15T16:48:30;-2.80;99.00
19017;DHT22;9641;51.494;6.670;2022-12-15T16:50:59;-2.90;99.90
19017;DHT22;9641;51.494;6.670;2022-12-15T16:53:29;-2.90;99.90
19017;DHT22;9641;51.494;6.670;2022-12-15T16:55:59;-2.90;99.90
19017;DHT22;9641;51.494;6.670;2022-12-15T16:58:29;-2.90;99.90
19017;DHT22;9641;51.494;6.670;2022-12-15T17:00:56;-2.80;99.90
19017;DHT22;9641;51.494;6.670;2022-12-15T17:03:25;-2.70;99.90
19017;DHT22;9641;51.494;6.670;2022-12-15T17:05:55;-2.70;99.90
19017;DHT22;9641;51.494;6.670;2022-12-15T17:08:24;-2.70;99.90
19017;DHT22;9641;51.494;6.670;2022-12-15T17:11:02;-2.70;99.90
19017;DHT22;9641;51.494;6.670;2022-12-15T17:13:36;-2.60;99.90
19017;DHT22;9641;51.494;6.670;2022-12-15T17:16:08;-2.60;99.90
19017;DHT22;9641;51.494;6.670;2022-12-15T17:18:42;-2.60;99.90
19017;DHT22;9641;51.494;6.670;2022-12-15T17:21:14;-2.50;99.90
19017;DHT22;9641;51.494;6.670;2022-12-15T17:24:00;-2.60;99.90
19017;DHT22;9641;51.494;6.670;2022-12-15T17:26:37;-2.60;99.90
19017;DHT22;9641;51.494;6.670;2022-12-15T17:29:11;-2.60;99.90
19017;DHT22;9641;51.494;6.670;2022-12-15T17:32:11;-2.60;99.90